Perkins, GA (30822)

11:21 AM EST on February 14, 2016 (GMT -0500)
South Waynesboro Ga. | | Change Station
CLOSE
Current Station
Personal Weather Station
Location: Waynesboro, GA
Elevation: 302 ft
Nearby Weather Stations

Elev 302 ft 33.06 °N, 82.00 °W | Updated 10 minutes ago

Clear
Clear
37.2 °F
Feels Like 32 °F
N
6.8
Wind Variable Wind from ESE

Today
High -- | Low -- °F
--% Chance of Precip.
Yesterday
High -- | Low -- °F
Precip. -- in
Pressure 30.46 in
Visibility 10.0 miles
Clouds Clear
Windchill 32 °F
Dew Point 10 °F
Humidity 32%
Rainfall 0.00 in
Snow Depth Not available.
7:12 AM 6:11 PM
Waxing Crescent, 43% visible
METAR KJYL 141615Z AUTO 06009KT 10SM CLR 05/M08 A3046 RMK AO2 T00451081
Pressure 30.46 in
Visibility 10.0 miles
Clouds Clear
Windchill 32 °F
Dew Point 10 °F
Humidity 32%
Rainfall 0.00 in
Snow Depth Not available.
7:12 AM 6:11 PM
Waxing Crescent, 43% visible
METAR KJYL 141615Z AUTO 06009KT 10SM CLR 05/M08 A3046 RMK AO2 T00451081

10-Day Weather Forecast

Almanac

Astronomy

Feb. 14, 2016 Rise Set
Actual Time
Civil Twilight
Nautical Twilight
Astronomical Twilight
Moon
Length of Visible Light
Length of Day
Tomorrow will be .
, % of the Moon is Illuminated

Today's Extremes

State Highs State Lows

Community

WunderPhotos

Upload Photos

1,892,829 photos uploaded!

WunderBlog® & News

Nearby

Air Quality

  Air Quality AQ Index Pollutant
Not available.

Snow Depth

Station Depth Elevation

Earthquake Activity

City Distance Mag. Time & Date
Minimum magnitude displayed is 2.5.

Coastal Water Temperatures

Place Temperature

Stations

Nearby Weather Stations

Station Location Temp. Windchill Dew Point Humidity Wind Precip. Elev Updated Type
                   

Watches & Warnings

There are currently no watches in effect.